Otho, IA (50569)

03:36 PM CDT am 28. September 2016 (GMT -0500)
Duncombe School area | | Change Station

Höhe 1109 ft 42.51 °N, 94.18 °W | Updated 5 seconds ago

Overcast
Bedeckt
59.5 °F
gefühlte 59.5 °F
N
0.9
Wind Wechselnd Wind aus West
Gusts 4.0 mph

Heute
Max. -- | schwach -- °F
--% Regenrisiko
Gestern
Max. -- | schwach -- °F
Precip. -- inch
Druck 30.21 inch
Sichtweite 10.0 Meilen
Wolken Bedeckt 3200 ft
Taupunkt 49 °F
Feuchtigkeit 69%
Regen 0.00 inch
Schneehöhe Nicht verfügbar..
7:11 AM 7:02 PM
Letztes Viertel, 4% visible
METAR KFOD 282035Z AUTO 01008G16KT 10SM OVC032 15/08 A3021 RMK AO1
Druck 30.21 inch
Sichtweite 10.0 Meilen
Wolken Bedeckt 3200 ft
Taupunkt 49 °F
Feuchtigkeit 69%
Regen 0.00 inch
Schneehöhe Nicht verfügbar..
7:11 AM 7:02 PM
Letztes Viertel, 4% visible
METAR KFOD 282035Z AUTO 01008G16KT 10SM OVC032 15/08 A3021 RMK AO1

10-Day Weather Forecast

Almanac

Astronomie

Sep. 28, 2016 Aufgang Untergang
Genaue Zeit
Bürgerliche Dämmerung
Nautische Dämmerung
Astronomische Dämmerung
Mond
Länge des sichtbaren Lichts
Tageslänge
Tomorrow will be .
, % of the Moon is Illuminated

Heutige Rekorde

State Highs State Lows

Community

WunderPhotos

Upload Photos

1,942,325 Fotos hochgeladen!

WunderBlog® & News

Nearby

Luftqualität

  Luftqualität LQ Index Schadstoff
Not available.

Schneehöhe

Station Depth Höhe

Erdbebenaktivität

Stadt Distance Mag. Time & Date
Minimum magnitude displayed is 2.5.

küstennahe Wassertemperaturen

Ort Temperatur

Stations

Wetterstationen in der Umgebung

Stationsstandort Temp. Windchill Taupunkt Feuchtigkeit Wind Precip. Höhe Aktualisiert Art
                   

Watches & Warnings

There are currently no watches in effect.